Time;durP1;ratioP1;P1;durP2;ratioP2;P2;SDS_P1;SDS_P2;PMS_P1;PMS_P2;Temp;Humidity;BMP_temperature;BMP_pressure;BME280_temperature;BME280_humidity;BME280_pressure;Samples;Min_cycle;Max_cycle;Signal;HPM_P1;HPM_P2
2021/07/07 00:02:42;;;;;;;18.30;10.10;;;;;;;21.05;62.46;99603.69;254460;1104;116038;-65
2021/07/07 00:07:47;;;;;;;11.90;10.80;;;;;;;21.00;62.68;99598.38;254848;1100;115689;-66
2021/07/07 00:12:53;;;;;;;13.08;11.60;;;;;;;20.94;62.66;99596.89;254488;1104;115637;-66
2021/07/07 00:17:58;;;;;;;12.73;10.53;;;;;;;20.91;62.52;99595.59;254391;1099;115598;-66
2021/07/07 00:23:03;;;;;;;11.80;10.65;;;;;;;20.85;62.77;99599.52;254834;1104;116467;-66
2021/07/07 00:28:07;;;;;;;11.83;10.40;;;;;;;20.78;62.75;99593.75;254148;1098;115618;-65
2021/07/07 00:33:11;;;;;;;11.68;10.48;;;;;;;20.67;62.68;99603.20;254604;1098;115066;-64
2021/07/07 00:38:15;;;;;;;13.20;9.45;;;;;;;20.56;63.04;99599.09;255121;1104;115902;-65
2021/07/07 00:43:18;;;;;;;12.63;11.18;;;;;;;20.52;62.96;99598.89;255084;1104;115983;-65
2021/07/07 00:48:22;;;;;;;10.73;9.58;;;;;;;20.47;63.00;99602.54;255397;1104;115284;-65
2021/07/07 00:53:26;;;;;;;10.63;9.60;;;;;;;20.44;63.42;99602.34;255433;1104;115893;-65
2021/07/07 00:58:32;;;;;;;12.58;11.43;;;;;;;20.45;63.30;99593.92;257065;1104;115094;-65
2021/07/07 01:03:35;;;;;;;18.95;10.10;;;;;;;20.44;62.98;99597.73;256267;1104;115454;-66
2021/07/07 01:08:39;;;;;;;11.58;10.43;;;;;;;20.45;63.39;99595.83;256649;1104;115566;-67
2021/07/07 01:13:42;;;;;;;12.23;11.13;;;;;;;20.45;63.58;99591.20;256588;1104;115473;-66
2021/07/07 01:18:46;;;;;;;13.58;10.48;;;;;;;20.43;63.44;99593.42;256129;1104;115170;-66
2021/07/07 01:23:53;;;;;;;12.23;10.90;;;;;;;20.33;63.40;99596.30;256226;1104;117252;-67
2021/07/07 01:29:00;;;;;;;13.78;9.98;;;;;;;20.26;64.14;99601.30;255676;1104;115956;-66
2021/07/07 01:34:04;;;;;;;13.00;11.55;;;;;;;20.22;63.82;99596.79;255151;1104;115326;-66
2021/07/07 01:39:09;;;;;;;13.40;12.00;;;;;;;20.19;64.29;99600.90;255195;1099;115315;-67
2021/07/07 01:44:12;;;;;;;12.20;11.05;;;;;;;20.17;64.07;99606.64;254417;1104;117205;-67
2021/07/07 01:49:16;;;;;;;13.53;11.58;;;;;;;20.10;64.74;99603.53;255500;1104;116371;-67
2021/07/07 01:54:19;;;;;;;15.25;10.38;;;;;;;20.12;65.41;99614.05;254284;1104;116663;-66
2021/07/07 01:59:22;;;;;;;11.00;9.95;;;;;;;20.15;65.22;99625.09;254839;1104;117282;-66
2021/07/07 02:04:26;;;;;;;11.33;10.23;;;;;;;20.13;65.51;99616.46;255250;1104;116184;-64
2021/07/07 02:09:29;;;;;;;10.73;9.73;;;;;;;20.15;65.28;99625.09;254249;1104;115955;-65
2021/07/07 02:14:31;;;;;;;16.18;11.03;;;;;;;20.15;65.47;99624.28;255263;1100;116140;-64
2021/07/07 02:19:35;;;;;;;10.68;9.75;;;;;;;20.17;65.59;99630.20;254237;1104;116644;-65
2021/07/07 02:24:38;;;;;;;15.78;11.98;;;;;;;20.22;65.50;99640.09;255616;1104;117179;-65
2021/07/07 02:29:41;;;;;;;12.50;11.30;;;;;;;20.22;65.16;99646.31;254292;1104;119511;-65
2021/07/07 02:34:44;;;;;;;11.83;10.63;;;;;;;20.23;65.76;99642.50;255675;1104;117502;-65
2021/07/07 02:39:47;;;;;;;13.50;10.47;;;;;;;20.26;65.59;99646.52;254344;1104;117078;-64
2021/07/07 02:44:50;;;;;;;12.48;11.25;;;;;;;20.27;65.54;99638.09;254215;1104;115700;-65
2021/07/07 02:49:54;;;;;;;14.13;12.93;;;;;;;20.26;65.65;99643.81;255782;1104;116317;-64
2021/07/07 02:54:57;;;;;;;11.93;10.35;;;;;;;20.30;65.50;99648.33;256791;1104;115625;-64
2021/07/07 02:59:59;;;;;;;19.95;13.03;;;;;;;20.36;65.45;99630.89;255398;1104;116234;-63
2021/07/07 03:05:05;;;;;;;12.15;10.95;;;;;;;20.37;65.11;99628.98;257273;1104;115511;-64
2021/07/07 03:10:12;;;;;;;12.50;11.50;;;;;;;20.45;65.34;99631.82;257022;1104;120639;-67
2021/07/07 03:15:15;;;;;;;14.63;11.08;;;;;;;20.60;65.67;99635.30;257150;1104;117285;-67
2021/07/07 03:20:19;;;;;;;13.10;11.85;;;;;;;20.68;65.35;99637.30;257191;1104;115349;-68
2021/07/07 03:25:23;;;;;;;12.98;11.78;;;;;;;20.68;64.83;99643.52;257143;1104;114839;-68
2021/07/07 03:30:27;;;;;;;13.28;12.15;;;;;;;20.78;65.17;99650.64;257105;1104;115448;-69
2021/07/07 03:35:31;;;;;;;12.63;11.53;;;;;;;20.85;65.02;99640.97;254291;1104;116208;-65
2021/07/07 03:40:36;;;;;;;12.65;11.38;;;;;;;20.94;65.21;99635.63;255716;1104;116538;-66
2021/07/07 03:45:40;;;;;;;11.65;10.55;;;;;;;21.10;65.29;99639.58;254525;1104;116163;-65
2021/07/07 03:50:44;;;;;;;12.83;11.50;;;;;;;21.26;64.79;99628.42;256313;1104;115359;-66
2021/07/07 03:55:49;;;;;;;13.60;11.85;;;;;;;21.38;64.68;99632.20;255406;1099;116540;-65
2021/07/07 04:00:53;;;;;;;14.08;11.40;;;;;;;21.54;63.96;99639.94;254104;1104;115811;-65
2021/07/07 04:05:57;;;;;;;14.38;12.93;;;;;;;21.43;64.25;99640.19;254861;1104;115803;-65
2021/07/07 04:11:00;;;;;;;19.65;11.30;;;;;;;21.44;64.43;99649.12;256146;1098;116036;-65
2021/07/07 04:16:03;;;;;;;12.35;11.15;;;;;;;21.41;64.54;99652.44;255585;1099;115338;-65
2021/07/07 04:21:06;;;;;;;13.35;11.85;;;;;;;21.81;64.23;99656.86;254443;1104;115388;-64
2021/07/07 04:26:11;;;;;;;16.25;10.95;;;;;;;22.25;63.97;99657.91;254117;1104;115997;-64
2021/07/07 04:31:15;;;;;;;13.15;11.95;;;;;;;24.21;62.15;99661.27;254345;1104;116559;-64
2021/07/07 04:36:19;;;;;;;24.23;11.70;;;;;;;24.32;61.93;99662.55;254317;1100;116175;-64
2021/07/07 04:41:23;;;;;;;14.03;12.77;;;;;;;25.25;60.08;99667.75;255114;1104;115800;-65
2021/07/07 04:46:27;;;;;;;11.70;10.70;;;;;;;27.88;57.25;99676.13;255537;1104;115751;-64
2021/07/07 04:51:31;;;;;;;12.57;11.33;;;;;;;28.22;55.07;99676.63;254791;1104;115865;-65
2021/07/07 04:56:36;;;;;;;12.77;11.70;;;;;;;28.15;54.23;99678.01;255421;1103;115632;-65
2021/07/07 05:01:39;;;;;;;12.17;11.07;;;;;;;27.80;54.10;99683.39;255705;1104;115140;-66
2021/07/07 05:06:42;;;;;;;14.83;11.67;;;;;;;27.46;53.53;99675.77;255232;1104;116265;-66
2021/07/07 05:11:46;;;;;;;12.25;11.25;;;;;;;29.69;51.06;99679.50;254302;1100;116341;-66
2021/07/07 05:16:49;;;;;;;12.00;10.38;;;;;;;33.18;47.58;99687.30;255863;1104;115080;-66
2021/07/07 05:21:53;;;;;;;8.53;7.80;;;;;;;36.59;44.08;99684.61;256487;1104;114962;-67
2021/07/07 05:27:00;;;;;;;7.53;6.83;;;;;;;39.30;40.51;99692.50;257138;1104;114484;-66
2021/07/07 05:32:05;;;;;;;6.00;5.43;;;;;;;41.49;36.98;99692.98;257238;1104;114668;-67
2021/07/07 05:37:08;;;;;;;7.28;5.65;;;;;;;42.81;33.40;99698.64;257203;1104;115130;-66
2021/07/07 05:42:15;;;;;;;5.60;5.10;;;;;;;43.27;31.42;99699.80;256795;1100;115889;-66
2021/07/07 05:47:19;;;;;;;4.48;4.08;;;;;;;43.99;29.51;99706.23;256150;1100;115476;-66
2021/07/07 05:52:26;;;;;;;5.30;4.60;;;;;;;44.60;28.45;99694.05;255951;1100;115457;-67
2021/07/07 05:57:39;;;;;;;6.08;4.45;;;;;;;45.49;27.24;99703.33;255316;1104;115473;-67
2021/07/07 06:02:44;;;;;;;5.20;4.75;;;;;;;46.49;26.19;99700.00;254837;1104;116504;-66
2021/07/07 06:07:48;;;;;;;9.13;5.60;;;;;;;47.32;25.17;99699.28;254394;1104;115257;-67
2021/07/07 06:12:55;;;;;;;5.75;5.35;;;;;;;48.13;24.15;99705.95;255786;1104;118346;-66
2021/07/07 06:17:59;;;;;;;5.40;4.33;;;;;;;48.10;22.97;99706.93;254395;1104;115494;-66
2021/07/07 06:23:03;;;;;;;5.46;4.96;;;;;;;48.46;22.84;99694.30;254289;1104;115929;-67
2021/07/07 06:28:07;;;;;;;6.50;5.17;;;;;;;48.93;22.39;99699.99;254306;1100;115618;-66
2021/07/07 06:33:12;;;;;;;5.23;4.53;;;;;;;48.61;21.65;99697.09;254724;1104;115831;-66
2021/07/07 06:38:15;;;;;;;7.28;5.03;;;;;;;48.89;21.49;99698.19;255251;1104;115959;-67
2021/07/07 06:43:20;;;;;;;5.90;5.23;;;;;;;49.43;21.47;99706.92;254235;1104;115705;-66
2021/07/07 06:48:23;;;;;;;9.25;5.00;;;;;;;49.71;20.82;99697.88;254498;1104;114992;-66
2021/07/07 06:53:26;;;;;;;5.73;4.53;;;;;;;49.98;20.35;99713.52;255873;1104;115615;-67
2021/07/07 06:58:30;;;;;;;5.58;5.18;;;;;;;49.96;19.81;99699.84;255637;1104;115731;-68
2021/07/07 07:03:34;;;;;;;5.70;5.20;;;;;;;49.44;19.42;99702.81;254533;1104;115564;-67
2021/07/07 07:08:37;;;;;;;4.60;4.30;;;;;;;48.81;19.43;99708.36;254622;1104;116007;-66
2021/07/07 07:13:41;;;;;;;6.18;4.88;;;;;;;48.56;20.06;99706.28;256235;1104;115606;-67
2021/07/07 07:18:45;;;;;;;6.10;5.43;;;;;;;48.69;20.01;99711.55;255616;1104;115198;-67
2021/07/07 07:23:49;;;;;;;11.15;5.98;;;;;;;48.10;19.85;99709.75;255970;1104;114796;-66
2021/07/07 07:28:52;;;;;;;14.43;5.23;;;;;;;47.09;21.13;99710.16;255944;1104;115730;-68
2021/07/07 07:33:58;;;;;;;5.06;4.76;;;;;;;46.24;21.27;99709.70;256793;1104;115596;-68
2021/07/07 07:39:10;;;;;;;6.23;4.70;;;;;;;45.63;22.16;99700.63;254504;1104;115577;-66
2021/07/07 07:44:14;;;;;;;8.45;4.75;;;;;;;44.67;22.15;99709.80;256370;1104;115454;-67
2021/07/07 07:49:18;;;;;;;7.07;6.37;;;;;;;43.34;23.53;99698.76;255643;1104;115466;-66
2021/07/07 07:54:23;;;;;;;5.90;5.43;;;;;;;42.36;23.77;99708.20;254495;1104;115322;-66
2021/07/07 07:59:26;;;;;;;4.55;4.25;;;;;;;41.92;25.22;99707.22;256049;1104;116273;-66
2021/07/07 08:04:31;;;;;;;8.83;6.23;;;;;;;41.69;25.60;99704.77;255433;1104;115142;-65
2021/07/07 08:09:34;;;;;;;6.15;5.65;;;;;;;41.30;26.15;99706.70;255302;1099;115081;-66
2021/07/07 08:14:38;;;;;;;7.43;5.15;;;;;;;40.70;25.86;99708.34;254543;1104;115204;-67
2021/07/07 08:19:42;;;;;;;6.23;5.65;;;;;;;40.39;25.85;99699.59;254646;1104;115995;-66
2021/07/07 08:24:47;;;;;;;6.20;5.60;;;;;;;40.22;26.69;99709.19;254591;1104;115875;-67
2021/07/07 08:29:50;;;;;;;5.30;4.80;;;;;;;39.70;26.93;99709.99;254785;1103;114722;-66
2021/07/07 08:34:54;;;;;;;11.05;6.63;;;;;;;39.32;26.83;99709.59;254580;1104;115265;-65
2021/07/07 08:39:58;;;;;;;8.88;6.30;;;;;;;39.05;27.11;99696.59;254359;1104;115457;-68
2021/07/07 08:45:07;;;;;;;6.65;5.48;;;;;;;38.81;27.84;99700.64;254086;1104;117991;-68
2021/07/07 08:50:19;;;;;;;6.67;6.10;;;;;;;38.53;27.29;99706.67;254019;1104;115510;-69
2021/07/07 08:55:24;;;;;;;5.98;5.35;;;;;;;38.49;28.51;99705.97;255713;1104;115294;-68
2021/07/07 09:00:40;;;;;;;6.68;6.18;;;;;;;38.30;28.23;99699.91;254288;1104;115262;-69
2021/07/07 09:06:02;;;;;;;5.83;5.03;;;;;;;38.09;28.05;99711.37;253846;1104;116606;-70
2021/07/07 09:11:18;;;;;;;5.28;4.88;;;;;;;38.11;27.69;99708.16;255689;1100;115473;-69
2021/07/07 09:16:20;;;;;;;6.08;5.50;;;;;;;38.12;27.49;99710.56;254663;1100;115648;-69
2021/07/07 09:21:27;;;;;;;5.08;4.68;;;;;;;38.20;28.20;99716.80;254053;1104;115521;-68
2021/07/07 09:26:34;;;;;;;6.15;5.10;;;;;;;38.34;28.16;99722.91;256464;1104;114567;-67
2021/07/07 09:31:41;;;;;;;6.08;5.58;;;;;;;38.02;28.50;99728.95;257080;1104;115524;-68
2021/07/07 09:36:46;;;;;;;5.78;5.28;;;;;;;38.15;29.37;99718.06;257080;1104;116233;-68
2021/07/07 09:41:51;;;;;;;6.33;5.88;;;;;;;38.13;28.44;99720.48;257108;1104;115155;-69
2021/07/07 09:46:55;;;;;;;6.85;6.20;;;;;;;37.97;27.55;99720.29;256299;1104;115541;-68
2021/07/07 09:52:00;;;;;;;13.68;6.00;;;;;;;37.07;27.84;99728.17;256690;1104;116719;-66
2021/07/07 09:57:03;;;;;;;7.13;5.80;;;;;;;37.06;28.55;99732.94;253919;1104;116448;-68
2021/07/07 10:02:05;;;;;;;10.53;6.20;;;;;;;36.54;28.05;99721.15;255259;1104;116141;-69
2021/07/07 10:07:13;;;;;;;6.00;5.50;;;;;;;36.46;30.18;99730.73;253966;1104;115432;-69
2021/07/07 10:12:19;;;;;;;6.40;5.80;;;;;;;36.14;30.27;99732.94;253994;1099;115586;-69
2021/07/07 10:17:23;;;;;;;6.25;5.75;;;;;;;36.18;30.97;99722.61;253901;1099;114599;-68
2021/07/07 10:22:25;;;;;;;;;;;;;;;36.10;30.51;99730.19;255397;1104;115123;-68
2021/07/07 10:27:29;;;;;;;6.28;5.78;;;;;;;36.06;30.30;99726.67;255501;1104;103017;-69
2021/07/07 10:32:36;;;;;;;11.70;6.53;;;;;;;35.89;30.48;99731.13;254317;1100;116072;-68
2021/07/07 10:37:41;;;;;;;7.08;6.00;;;;;;;35.63;31.43;99729.67;254839;1104;116089;-69
2021/07/07 10:42:44;;;;;;;6.03;5.53;;;;;;;36.04;32.10;99726.29;254204;1099;116694;-69
2021/07/07 10:47:48;;;;;;;6.18;5.78;;;;;;;36.54;31.81;99731.47;254217;1104;115339;-69
2021/07/07 10:52:52;;;;;;;6.33;5.37;;;;;;;36.41;30.35;99726.41;254099;1104;115773;-69
2021/07/07 10:57:59;;;;;;;7.10;6.60;;;;;;;35.82;31.39;99728.39;254060;1104;115548;-69
2021/07/07 11:03:33;;;;;;;7.60;6.90;;;;;;;35.75;30.51;99715.34;254295;1104;115541;-67
2021/07/07 11:08:40;;;;;;;10.05;9.03;;;;;;;35.57;30.58;99717.41;255781;1104;116286;-69
2021/07/07 11:13:43;;;;;;;10.38;7.60;;;;;;;35.43;31.30;99718.28;256673;1104;115124;-67
2021/07/07 11:18:47;;;;;;;19.65;8.75;;;;;;;35.91;31.72;99716.86;254506;1104;115785;-67
2021/07/07 11:23:53;;;;;;;8.00;7.33;;;;;;;36.35;32.55;99722.52;256548;1104;115640;-69
2021/07/07 11:28:58;;;;;;;8.28;7.58;;;;;;;36.10;31.19;99725.42;256455;1104;115833;-68
2021/07/07 11:34:02;;;;;;;9.78;7.23;;;;;;;35.89;30.63;99719.24;257195;1104;115664;-69
2021/07/07 11:39:06;;;;;;;8.20;7.43;;;;;;;35.65;32.30;99720.94;257004;1104;115290;-68
2021/07/07 11:44:11;;;;;;;7.73;7.15;;;;;;;35.48;32.97;99716.27;257073;1104;115655;-68
2021/07/07 11:49:15;;;;;;;8.15;7.43;;;;;;;35.30;32.83;99727.44;257038;1104;116064;-68
2021/07/07 11:54:18;;;;;;;7.53;6.93;;;;;;;35.16;32.66;99727.47;254496;1104;115690;-67
2021/07/07 11:59:21;;;;;;;7.33;6.75;;;;;;;35.34;32.86;99726.23;256154;1104;116727;-67
2021/07/07 12:04:26;;;;;;;6.48;5.98;;;;;;;35.71;32.97;99720.13;255130;1104;116602;-67
2021/07/07 12:09:31;;;;;;;7.75;7.05;;;;;;;35.74;32.44;99724.86;254905;1100;115132;-67
2021/07/07 12:14:39;;;;;;;6.35;5.85;;;;;;;36.18;31.24;99717.05;253917;1104;117519;-68
2021/07/07 12:19:43;;;;;;;6.18;5.68;;;;;;;36.48;30.81;99716.44;253954;1104;115380;-66
2021/07/07 12:24:47;;;;;;;5.73;5.23;;;;;;;36.60;30.44;99713.17;254440;1099;116036;-68
2021/07/07 12:29:54;;;;;;;4.57;4.37;;;;;;;36.51;30.45;99723.95;254243;1104;115143;-67
2021/07/07 12:35:01;;;;;;;3.03;2.90;;;;;;;36.52;30.06;99717.20;254482;1104;116124;-68
2021/07/07 12:40:16;;;;;;;5.08;3.58;;;;;;;36.11;30.56;99718.68;254287;1104;115313;-68
2021/07/07 12:45:37;;;;;;;4.53;3.83;;;;;;;36.16;30.58;99722.23;254161;1099;115408;-67
2021/07/07 12:50:46;;;;;;;4.65;4.25;;;;;;;36.29;29.85;99718.59;253854;1104;116178;-69
2021/07/07 12:55:49;;;;;;;3.50;3.30;;;;;;;36.44;30.10;99711.70;255184;1104;115984;-67
2021/07/07 13:00:53;;;;;;;4.77;4.40;;;;;;;36.14;29.90;99714.30;254122;1104;115907;-67
2021/07/07 13:05:56;;;;;;;;;;;;;;;35.59;30.27;99712.25;254294;1104;115339;-67
2021/07/07 13:10:59;;;;;;;9.05;4.43;;;;;;;34.87;31.48;99713.67;256017;1104;103724;-68
2021/07/07 13:16:11;;;;;;;5.13;4.40;;;;;;;34.82;31.99;99713.31;254706;1104;115915;-68
2021/07/07 13:21:15;;;;;;;8.35;4.73;;;;;;;35.08;32.04;99713.63;255516;1104;116639;-68
2021/07/07 13:26:22;;;;;;;;;;;;;;;35.07;31.87;99714.03;255100;1104;115060;-68
2021/07/07 13:31:24;;;;;;;5.63;5.13;;;;;;;34.67;31.31;99718.03;255013;1104;103211;-69
2021/07/07 13:36:27;;;;;;;5.80;4.83;;;;;;;34.48;31.57;99727.55;256437;1104;117096;-68
2021/07/07 13:41:29;;;;;;;6.43;5.80;;;;;;;34.77;32.16;99711.70;257043;1104;116062;-68
2021/07/07 13:46:33;;;;;;;7.03;4.33;;;;;;;34.82;32.08;99714.10;257185;1104;118162;-68
2021/07/07 13:51:36;;;;;;;5.20;4.83;;;;;;;35.15;32.00;99718.38;257064;1104;117106;-69
2021/07/07 13:56:38;;;;;;;5.70;5.10;;;;;;;35.29;31.09;99717.55;256432;1104;116177;-68
2021/07/07 14:01:41;;;;;;;5.93;4.33;;;;;;;35.39;31.78;99713.95;255881;1104;116300;-68
2021/07/07 14:06:44;;;;;;;6.68;5.28;;;;;;;35.47;31.81;99707.16;254757;1104;116512;-68
2021/07/07 14:11:47;;;;;;;6.08;5.53;;;;;;;35.31;31.80;99712.39;254271;1099;117067;-69
2021/07/07 14:16:55;;;;;;;4.78;4.40;;;;;;;35.11;31.99;99718.38;254383;1104;116784;-68
2021/07/07 14:21:59;;;;;;;4.75;4.33;;;;;;;34.87;31.32;99716.44;254263;1104;116014;-68
2021/07/07 14:27:04;;;;;;;7.45;5.55;;;;;;;34.98;31.96;99716.42;254059;1104;115748;-68
2021/07/07 14:32:07;;;;;;;8.15;5.25;;;;;;;35.07;32.25;99712.05;254514;1100;117519;-67
2021/07/07 14:37:11;;;;;;;4.50;4.20;;;;;;;34.75;31.98;99714.08;254487;1100;116514;-69
2021/07/07 14:42:15;;;;;;;5.60;5.23;;;;;;;34.45;32.25;99717.27;254218;1104;115352;-69
2021/07/07 14:47:38;;;;;;;6.35;5.75;;;;;;;34.23;32.48;99707.37;254306;1104;115574;-68
2021/07/07 14:52:40;;;;;;;5.60;5.20;;;;;;;33.93;32.90;99713.27;254334;1104;116136;-68
2021/07/07 14:58:04;;;;;;;7.00;5.68;;;;;;;33.65;33.37;99711.17;255440;1100;115788;-68
2021/07/07 15:03:08;;;;;;;6.28;5.85;;;;;;;33.61;33.57;99707.63;254744;1104;116187;-67
2021/07/07 15:08:12;;;;;;;;;;;;;;;33.41;34.02;99707.94;255086;1104;116890;-68
2021/07/07 15:13:16;;;;;;;5.80;5.23;;;;;;;33.37;34.09;99709.10;255666;1104;104278;-67
2021/07/07 15:18:19;;;;;;;15.93;6.18;;;;;;;33.43;34.92;99702.03;255151;1100;116978;-69
2021/07/07 15:23:23;;;;;;;6.40;5.88;;;;;;;33.49;34.13;99708.77;254715;1104;116872;-70
2021/07/07 15:28:47;;;;;;;7.83;4.93;;;;;;;33.35;33.85;99709.48;255366;1104;116463;-67
2021/07/07 15:33:51;;;;;;;5.48;5.08;;;;;;;33.25;34.77;99706.67;255032;1104;116281;-67
2021/07/07 15:38:55;;;;;;;8.43;5.78;;;;;;;33.23;34.60;99711.80;255326;1099;115647;-68
2021/07/07 15:43:58;;;;;;;5.80;5.20;;;;;;;33.33;34.68;99709.09;257142;1104;117132;-69
2021/07/07 15:49:02;;;;;;;7.03;5.83;;;;;;;33.36;35.07;99708.31;256941;1104;120691;-68
2021/07/07 15:54:05;;;;;;;8.63;6.18;;;;;;;33.27;34.76;99709.87;257112;1104;115657;-69
2021/07/07 15:59:08;;;;;;;5.70;5.23;;;;;;;33.13;35.24;99716.08;257109;1104;114460;-69
2021/07/07 16:04:11;;;;;;;6.45;5.95;;;;;;;32.99;35.67;99725.09;257078;1105;115431;-68
2021/07/07 16:09:14;;;;;;;6.85;5.25;;;;;;;32.82;35.57;99727.72;255849;1104;115649;-68
2021/07/07 16:14:18;;;;;;;10.55;4.23;;;;;;;32.59;36.25;99750.02;255438;1104;115658;-68
2021/07/07 16:19:21;;;;;;;;;;;;;;;32.02;36.35;99750.27;254070;1104;115990;-68
2021/07/07 16:24:25;;;;;;;7.68;4.28;;;;;;;31.60;37.11;99756.05;256829;1104;102932;-67
2021/07/07 16:29:29;;;;;;;9.30;3.55;;;;;;;31.28;37.74;99776.88;254432;1104;115198;-68
2021/07/07 16:34:32;;;;;;;8.60;3.60;;;;;;;31.07;37.79;99788.37;256027;1104;115145;-67
2021/07/07 16:39:34;;;;;;;2.88;2.68;;;;;;;30.92;38.26;99800.31;254982;1104;115183;-67
2021/07/07 16:44:38;;;;;;;12.08;3.93;;;;;;;30.61;39.17;99806.88;255035;1100;115759;-67
2021/07/07 16:49:41;;;;;;;13.33;3.10;;;;;;;30.25;39.31;99799.95;254935;1098;116066;-67
2021/07/07 16:54:45;;;;;;;8.37;3.17;;;;;;;29.94;40.26;99809.15;254196;1104;116130;-67
2021/07/07 16:59:48;;;;;;;8.48;3.40;;;;;;;29.68;40.99;99815.27;254869;1104;115977;-67
2021/07/07 17:04:51;;;;;;;6.23;2.68;;;;;;;29.48;41.06;99822.70;254077;1104;115644;-68
2021/07/07 17:09:54;;;;;;;8.40;3.60;;;;;;;29.23;42.04;99838.59;254526;1104;115524;-68
2021/07/07 17:14:58;;;;;;;12.17;3.17;;;;;;;28.95;42.37;99848.91;254245;1104;116041;-68
2021/07/07 17:20:04;;;;;;;5.65;2.98;;;;;;;28.70;42.98;99860.02;255133;1104;115788;-68
2021/07/07 17:25:11;;;;;;;9.05;2.60;;;;;;;28.35;43.29;99868.10;255323;1104;116548;-68
2021/07/07 17:30:14;;;;;;;4.75;2.83;;;;;;;27.98;43.93;99861.94;254488;1104;115646;-67
2021/07/07 17:35:20;;;;;;;4.83;2.88;;;;;;;27.82;44.37;99861.86;255035;1100;116262;-67
2021/07/07 17:40:26;;;;;;;11.87;3.07;;;;;;;27.63;44.76;99860.89;256113;1099;116400;-67
2021/07/07 17:45:28;;;;;;;8.90;3.18;;;;;;;27.38;44.95;99866.38;256812;1104;115968;-68
2021/07/07 17:50:31;;;;;;;5.55;2.28;;;;;;;27.18;45.48;99877.45;254360;1104;115874;-67
2021/07/07 17:55:37;;;;;;;6.15;3.10;;;;;;;26.99;45.89;99880.73;257141;1103;115360;-67
2021/07/07 18:00:40;;;;;;;7.80;2.90;;;;;;;26.81;46.05;99888.33;257106;1104;117141;-68
2021/07/07 18:05:43;;;;;;;6.68;3.00;;;;;;;26.68;46.39;99892.96;257090;1104;115875;-67
2021/07/07 18:10:47;;;;;;;6.10;2.55;;;;;;;26.55;46.71;99901.48;257197;1104;115703;-67
2021/07/07 18:15:51;;;;;;;2.30;2.20;;;;;;;26.36;46.65;99930.10;254865;1099;116191;-67
2021/07/07 18:20:55;;;;;;;5.18;2.73;;;;;;;26.22;47.74;99915.91;255370;1104;115713;-67
2021/07/07 18:26:00;;;;;;;5.33;2.73;;;;;;;26.01;47.68;99929.55;255219;1104;115983;-66
2021/07/07 18:31:03;;;;;;;2.87;2.77;;;;;;;25.79;48.31;99941.59;254776;1104;115484;-66
2021/07/07 18:36:08;;;;;;;4.00;2.90;;;;;;;25.64;49.21;99944.91;254995;1100;115423;-66
2021/07/07 18:41:15;;;;;;;6.30;2.97;;;;;;;25.46;48.92;99946.89;254330;1104;115610;-67
2021/07/07 18:46:19;;;;;;;5.93;3.77;;;;;;;25.30;49.93;99958.69;255035;1099;115994;-66
2021/07/07 18:51:22;;;;;;;4.65;3.20;;;;;;;25.14;50.14;99967.40;254368;1104;115234;-67
2021/07/07 18:56:26;;;;;;;5.65;2.80;;;;;;;24.95;50.25;99983.34;254277;1104;115654;-65
2021/07/07 19:01:29;;;;;;;8.33;2.63;;;;;;;24.80;50.95;100008.34;254354;1104;115930;-67
2021/07/07 19:06:34;;;;;;;9.63;3.13;;;;;;;24.66;51.63;100018.64;254364;1104;115197;-68
2021/07/07 19:11:37;;;;;;;3.75;3.45;;;;;;;24.53;52.25;100022.31;254355;1104;115941;-66
2021/07/07 19:16:43;;;;;;;7.25;3.35;;;;;;;24.40;52.53;100038.52;254407;1098;116428;-67
2021/07/07 19:21:47;;;;;;;4.28;2.70;;;;;;;24.26;52.46;100040.57;254717;1104;116891;-66
2021/07/07 19:26:51;;;;;;;3.63;3.07;;;;;;;24.17;52.93;100048.69;255336;1104;115097;-66
2021/07/07 19:31:54;;;;;;;4.73;3.00;;;;;;;24.03;52.96;100052.67;254266;1104;116704;-66
2021/07/07 19:36:58;;;;;;;3.78;2.73;;;;;;;23.91;53.34;100055.98;255400;1104;115922;-65
2021/07/07 19:42:01;;;;;;;14.23;3.70;;;;;;;23.81;53.67;100059.02;255724;1104;115712;-65
2021/07/07 19:47:05;;;;;;;4.18;2.55;;;;;;;23.66;54.25;100073.03;255092;1104;117648;-67
2021/07/07 19:52:09;;;;;;;2.85;2.65;;;;;;;23.52;54.28;100073.11;257098;1103;115784;-68
2021/07/07 19:57:13;;;;;;;3.48;3.00;;;;;;;23.43;54.80;100072.25;257294;1104;115124;-65
2021/07/07 20:02:16;;;;;;;3.23;2.63;;;;;;;23.33;55.16;100070.59;257364;1104;116529;-65
2021/07/07 20:07:20;;;;;;;3.25;2.95;;;;;;;23.26;55.26;100088.45;257147;1103;115877;-66
2021/07/07 20:12:23;;;;;;;5.03;3.05;;;;;;;23.18;55.49;100088.11;255427;1104;115549;-65
2021/07/07 20:17:26;;;;;;;3.35;3.05;;;;;;;23.11;55.86;100095.89;255547;1104;115726;-67
2021/07/07 20:22:29;;;;;;;11.50;3.45;;;;;;;23.02;56.21;100095.02;256736;1104;115497;-66
2021/07/07 20:27:33;;;;;;;8.10;3.73;;;;;;;22.89;56.33;100106.77;255165;1103;119462;-66
2021/07/07 20:32:37;;;;;;;3.73;3.38;;;;;;;22.82;56.92;100100.94;256576;1103;116170;-67
2021/07/07 20:37:41;;;;;;;9.38;3.88;;;;;;;22.72;57.27;100109.28;255313;1104;115934;-66
2021/07/07 20:42:44;;;;;;;2.83;2.63;;;;;;;22.69;57.77;100121.56;254051;1098;116251;-65
2021/07/07 20:47:48;;;;;;;4.03;3.73;;;;;;;22.49;57.68;100120.11;254389;1104;116131;-65
2021/07/07 20:52:52;;;;;;;7.47;3.20;;;;;;;22.40;58.14;100126.55;255791;1104;115155;-67
2021/07/07 20:58:00;;;;;;;12.40;4.20;;;;;;;22.34;58.24;100123.13;255237;1104;115393;-67
2021/07/07 21:03:04;;;;;;;10.73;3.73;;;;;;;22.37;58.39;100121.72;255319;1100;116388;-66
2021/07/07 21:08:08;;;;;;;3.80;3.23;;;;;;;22.33;58.56;100124.23;254988;1104;115219;-66
2021/07/07 21:13:11;;;;;;;5.45;3.00;;;;;;;22.28;58.80;100137.94;254535;1104;114818;-67
2021/07/07 21:18:14;;;;;;;4.00;3.70;;;;;;;22.22;59.10;100125.57;254693;1104;116390;-66
2021/07/07 21:23:17;;;;;;;5.05;3.08;;;;;;;22.18;59.49;100138.14;254197;1104;115776;-67
2021/07/07 21:28:21;;;;;;;3.60;3.18;;;;;;;22.08;59.28;100135.61;254527;1104;115884;-66
2021/07/07 21:33:24;;;;;;;3.25;3.05;;;;;;;21.95;59.38;100144.53;254384;1104;115982;-67
2021/07/07 21:38:27;;;;;;;3.10;2.90;;;;;;;21.86;59.81;100138.98;255626;1104;116013;-66
2021/07/07 21:43:31;;;;;;;4.05;2.75;;;;;;;21.75;59.84;100146.50;254770;1100;115700;-66
2021/07/07 21:48:34;;;;;;;5.63;3.55;;;;;;;21.65;60.55;100135.84;254681;1104;116104;-67
2021/07/07 21:53:37;;;;;;;7.70;3.48;;;;;;;21.64;60.55;100142.38;255204;1104;115793;-67
2021/07/07 21:58:41;;;;;;;6.90;3.33;;;;;;;21.62;60.75;100160.05;254240;1104;115451;-67
2021/07/07 22:03:44;;;;;;;4.10;3.65;;;;;;;21.63;61.13;100167.09;255775;1104;114936;-67
2021/07/07 22:08:48;;;;;;;3.20;2.83;;;;;;;21.56;61.21;100180.22;255309;1104;116119;-66
2021/07/07 22:13:51;;;;;;;2.63;2.53;;;;;;;21.47;61.57;100185.51;256377;1104;115346;-66
2021/07/07 22:18:54;;;;;;;6.85;3.35;;;;;;;21.49;61.77;100183.30;257168;1104;116291;-67
2021/07/07 22:23:57;;;;;;;3.83;3.53;;;;;;;21.53;61.89;100184.33;257153;1104;116292;-66
2021/07/07 22:29:01;;;;;;;5.53;3.35;;;;;;;21.54;61.88;100185.94;257198;1104;115103;-67
2021/07/07 22:34:05;;;;;;;8.78;4.50;;;;;;;21.53;61.99;100194.38;257168;1104;115580;-67
2021/07/07 22:39:08;;;;;;;8.08;4.03;;;;;;;21.49;62.21;100183.30;255220;1104;115477;-66
2021/07/07 22:44:14;;;;;;;4.98;3.78;;;;;;;21.44;61.96;100192.33;257253;1104;115691;-65
2021/07/07 22:49:22;;;;;;;4.80;4.13;;;;;;;21.44;62.11;100186.09;254526;1100;115984;-66
2021/07/07 22:54:26;;;;;;;9.60;4.53;;;;;;;21.44;62.27;100175.25;255986;1104;115853;-66
2021/07/07 22:59:31;;;;;;;6.35;4.20;;;;;;;21.41;62.39;100186.69;255952;1100;116210;-67
2021/07/07 23:04:35;;;;;;;5.28;4.30;;;;;;;21.35;62.60;100182.47;255210;1104;116176;-67
2021/07/07 23:09:39;;;;;;;11.38;4.73;;;;;;;21.33;62.89;100176.53;255202;1104;116104;-67